Time;durP1;ratioP1;P1;durP2;ratioP2;P2;SDS_P1;SDS_P2;PMS_P1;PMS_P2;Temp;Humidity;BMP_temperature;BMP_pressure;BME280_temperature;BME280_humidity;BME280_pressure;Samples;Min_cycle;Max_cycle;Signal;HPM_P1;HPM_P2
2023/08/23 00:01:24;;;;;;;17.30;9.90;;;19.70;99.90;;;;;;5088982;28;20192;-63
2023/08/23 00:04:12;;;;;;;18.07;10.27;;;19.70;99.90;;;;;;5099786;28;20195;-63
2023/08/23 00:07:00;;;;;;;18.40;11.43;;;19.60;99.90;;;;;;5105858;28;20736;-63
2023/08/23 00:09:47;;;;;;;16.10;10.33;;;19.60;99.90;;;;;;5106418;28;20207;-63
2023/08/23 00:12:34;;;;;;;18.73;11.37;;;19.60;99.90;;;;;;5105423;28;20198;-62
2023/08/23 00:15:21;;;;;;;22.27;12.23;;;19.60;99.90;;;;;;5105212;28;20203;-63
2023/08/23 00:18:08;;;;;;;18.33;12.00;;;19.60;99.90;;;;;;5106313;28;20570;-63
2023/08/23 00:20:57;;;;;;;21.43;12.53;;;19.60;99.90;;;;;;5108515;28;20220;-64
2023/08/23 00:23:44;;;;;;;21.23;12.93;;;19.60;99.90;;;;;;5114756;27;20242;-63
2023/08/23 00:26:31;;;;;;;19.47;12.47;;;19.60;99.90;;;;;;5112477;27;20227;-63
2023/08/23 00:29:19;;;;;;;21.90;13.00;;;19.50;99.90;;;;;;5100095;28;20650;-63
2023/08/23 00:32:06;;;;;;;23.10;12.57;;;19.50;99.90;;;;;;5107883;28;20195;-63
2023/08/23 00:34:53;;;;;;;22.67;12.13;;;19.60;99.90;;;;;;5106644;27;20210;-63
2023/08/23 00:37:42;;;;;;;19.37;12.70;;;19.60;99.90;;;;;;5102310;28;20206;-63
2023/08/23 00:40:30;;;;;;;21.73;13.23;;;19.60;99.90;;;;;;5098382;28;20222;-63
2023/08/23 00:43:18;;;;;;;25.37;13.37;;;19.70;99.90;;;;;;5105575;28;20230;-63
2023/08/23 00:46:05;;;;;;;19.47;12.70;;;19.80;99.90;;;;;;5106640;28;20222;-63
2023/08/23 00:48:53;;;;;;;20.57;12.30;;;19.80;99.90;;;;;;5106439;27;20215;-63
2023/08/23 00:51:40;;;;;;;22.90;13.00;;;19.80;99.90;;;;;;5099161;28;20231;-65
2023/08/23 00:54:29;;;;;;;30.23;15.90;;;19.80;99.90;;;;;;5108579;27;20203;-64
2023/08/23 00:57:16;;;;;;;28.27;15.27;;;19.80;99.90;;;;;;5108066;27;20276;-64
2023/08/23 01:00:04;;;;;;;23.47;15.27;;;19.90;99.90;;;;;;5104759;27;20202;-65
2023/08/23 01:02:52;;;;;;;28.03;15.80;;;19.90;99.90;;;;;;5104564;28;20246;-64
2023/08/23 01:05:44;;;;;;;29.13;16.60;;;19.90;99.90;;;;;;5107947;27;20297;-64
2023/08/23 01:08:35;;;;;;;23.50;13.13;;;19.90;99.90;;;;;;5102615;27;20195;-64
2023/08/23 01:11:25;;;;;;;20.70;12.93;;;19.80;99.90;;;;;;5105329;28;20210;-64
2023/08/23 01:14:16;;;;;;;27.73;14.57;;;19.80;99.90;;;;;;5102739;28;20578;-64
2023/08/23 01:17:03;;;;;;;28.93;15.00;;;19.80;99.90;;;;;;5100564;27;20662;-64
2023/08/23 01:19:51;;;;;;;26.43;15.33;;;19.80;99.90;;;;;;5108289;27;20195;-65
2023/08/23 01:22:41;;;;;;;28.80;13.97;;;19.90;99.90;;;;;;5100080;27;20729;-65
2023/08/23 01:25:29;;;;;;;26.03;14.47;;;19.70;99.90;;;;;;5104346;28;20639;-64
2023/08/23 01:28:17;;;;;;;41.83;23.87;;;19.70;99.90;;;;;;5102244;27;20337;-65
2023/08/23 01:31:04;;;;;;;26.87;17.10;;;19.70;99.90;;;;;;5099229;28;20206;-64
2023/08/23 01:33:52;;;;;;;38.47;22.27;;;19.70;99.90;;;;;;5102419;28;20683;-64
2023/08/23 01:36:42;;;;;;;44.97;26.13;;;19.70;99.90;;;;;;5105806;27;20272;-64
2023/08/23 01:39:29;;;;;;;35.67;23.77;;;19.60;99.90;;;;;;5108468;27;20199;-64
2023/08/23 01:42:17;;;;;;;44.17;26.33;;;19.70;99.90;;;;;;5104164;28;20206;-64
2023/08/23 01:45:07;;;;;;;33.60;22.73;;;19.70;99.90;;;;;;5105785;28;20203;-63
2023/08/23 01:47:54;;;;;;;35.73;19.67;;;19.70;99.90;;;;;;5103606;27;20205;-65
2023/08/23 01:50:41;;;;;;;46.30;25.13;;;19.60;99.90;;;;;;5101926;28;20209;-63
2023/08/23 01:53:28;;;;;;;40.93;25.10;;;19.60;99.90;;;;;;5104884;28;20929;-64
2023/08/23 01:56:15;;;;;;;50.57;30.23;;;19.60;99.90;;;;;;5101569;28;20188;-64
2023/08/23 01:59:04;;;;;;;51.17;30.00;;;19.60;99.90;;;;;;5103255;28;20214;-65
2023/08/23 02:01:51;;;;;;;53.30;24.83;;;19.70;99.90;;;;;;5105852;28;20733;-64
2023/08/23 02:04:38;;;;;;;47.77;26.23;;;19.60;99.90;;;;;;5101585;27;20203;-66
2023/08/23 02:07:26;;;;;;;45.13;24.70;;;19.60;99.90;;;;;;5104281;27;20249;-65
2023/08/23 02:10:13;;;;;;;50.53;29.07;;;19.60;99.90;;;;;;5106009;27;20546;-64
2023/08/23 02:13:04;;;;;;;54.33;28.13;;;19.70;99.90;;;;;;5105250;28;20793;-65
2023/08/23 02:15:52;;;;;;;56.00;28.70;;;19.50;99.90;;;;;;5102387;28;20286;-64
2023/08/23 02:18:40;;;;;;;48.57;27.33;;;19.40;99.90;;;;;;5111238;27;20203;-64
2023/08/23 02:21:27;;;;;;;67.40;35.77;;;19.30;99.90;;;;;;5102515;27;20196;-64
2023/08/23 02:24:14;;;;;;;61.27;33.03;;;19.30;99.90;;;;;;5101194;28;20237;-65
2023/08/23 02:27:01;;;;;;;58.43;36.87;;;19.40;99.90;;;;;;5103777;28;20257;-64
2023/08/23 02:29:48;;;;;;;57.90;33.70;;;19.40;99.90;;;;;;5105282;27;20239;-64
2023/08/23 02:32:37;;;;;;;53.10;31.70;;;19.40;99.90;;;;;;5101133;28;20208;-64
2023/08/23 02:35:24;;;;;;;54.87;31.03;;;19.40;99.90;;;;;;5102380;28;20195;-64
2023/08/23 02:38:12;;;;;;;45.23;29.17;;;19.40;99.90;;;;;;5103063;28;20223;-64
2023/08/23 02:40:59;;;;;;;53.70;30.07;;;19.40;99.90;;;;;;5104606;27;20199;-64
2023/08/23 02:43:46;;;;;;;48.90;28.47;;;19.40;99.90;;;;;;5104606;28;20214;-64
2023/08/23 02:46:34;;;;;;;46.50;28.43;;;19.50;99.90;;;;;;5097598;28;20227;-64
2023/08/23 02:49:22;;;;;;;45.37;27.37;;;19.50;99.90;;;;;;5102097;28;20195;-64
2023/08/23 02:52:09;;;;;;;40.33;25.20;;;19.60;99.90;;;;;;5102961;28;20690;-65
2023/08/23 02:54:57;;;;;;;41.37;25.37;;;19.50;99.90;;;;;;5103319;28;20207;-65
2023/08/23 02:57:44;;;;;;;39.60;25.00;;;19.50;99.90;;;;;;5105646;28;20195;-65
2023/08/23 03:00:31;;;;;;;40.17;26.80;;;19.50;99.90;;;;;;5101667;27;20244;-65
2023/08/23 03:03:18;;;;;;;45.13;28.87;;;19.50;99.90;;;;;;5100567;28;20245;-66
2023/08/23 03:06:07;;;;;;;51.00;32.70;;;19.40;99.90;;;;;;5100524;28;20226;-65
2023/08/23 03:08:54;;;;;;;57.20;33.43;;;19.50;99.90;;;;;;5106219;28;20286;-65
2023/08/23 03:11:41;;;;;;;54.13;34.23;;;19.50;99.90;;;;;;5103963;28;21377;-65
2023/08/23 03:14:29;;;;;;;55.30;35.17;;;19.50;99.90;;;;;;5103018;28;20202;-65
2023/08/23 03:17:17;;;;;;;54.20;34.40;;;19.50;99.90;;;;;;5101882;28;20233;-65
2023/08/23 03:20:05;;;;;;;66.50;37.50;;;19.50;99.90;;;;;;5100964;28;20198;-66
2023/08/23 03:22:53;;;;;;;61.13;37.90;;;19.50;99.90;;;;;;5102666;28;20578;-65
2023/08/23 03:25:40;;;;;;;62.80;38.70;;;19.50;99.90;;;;;;5109054;28;20199;-65
2023/08/23 03:28:28;;;;;;;66.07;41.50;;;19.50;99.90;;;;;;5101054;28;20199;-65
2023/08/23 03:31:15;;;;;;;69.10;41.97;;;19.40;99.90;;;;;;5102214;28;20688;-67
2023/08/23 03:34:02;;;;;;;71.93;42.93;;;19.40;99.90;;;;;;5101685;28;20658;-65
2023/08/23 03:36:49;;;;;;;77.07;45.03;;;19.40;99.90;;;;;;5104193;28;20190;-65
2023/08/23 03:39:38;;;;;;;75.20;45.20;;;19.40;99.90;;;;;;5099275;27;20207;-65
2023/08/23 03:42:25;;;;;;;80.13;45.57;;;19.40;99.90;;;;;;5108846;27;20777;-65
2023/08/23 03:45:13;;;;;;;81.27;47.20;;;19.40;99.90;;;;;;5109876;27;20203;-66
2023/08/23 03:48:00;;;;;;;83.23;48.10;;;19.40;99.90;;;;;;5107534;28;20753;-65
2023/08/23 03:50:47;;;;;;;99.67;51.63;;;19.40;99.90;;;;;;5105973;28;20662;-65
2023/08/23 03:53:34;;;;;;;92.40;51.40;;;19.40;99.90;;;;;;5106497;28;20210;-66
2023/08/23 03:56:23;;;;;;;96.10;51.37;;;19.40;99.90;;;;;;5104212;27;20199;-66
2023/08/23 03:59:10;;;;;;;93.33;51.50;;;19.40;99.90;;;;;;5104928;28;20226;-65
2023/08/23 04:01:57;;;;;;;93.83;50.27;;;19.50;99.90;;;;;;5108707;28;20249;-65
2023/08/23 04:04:44;;;;;;;89.60;49.00;;;19.50;99.90;;;;;;5106648;28;20199;-65
2023/08/23 04:07:31;;;;;;;94.93;51.03;;;19.60;99.90;;;;;;5108742;28;20678;-66
2023/08/23 04:10:19;;;;;;;98.07;52.57;;;19.60;99.90;;;;;;5103472;28;20229;-67
2023/08/23 04:13:07;;;;;;;99.67;51.60;;;19.60;99.90;;;;;;5106021;27;20276;-66
2023/08/23 04:15:55;;;;;;;100.80;51.97;;;19.60;99.90;;;;;;5104717;27;20223;-65
2023/08/23 04:18:42;;;;;;;100.53;51.27;;;19.60;99.90;;;;;;5105142;27;20694;-66
2023/08/23 04:21:29;;;;;;;105.20;55.07;;;19.70;99.90;;;;;;5106080;27;20196;-67
2023/08/23 04:24:17;;;;;;;116.33;56.57;;;19.70;99.90;;;;;;5105497;28;20677;-66
2023/08/23 04:27:04;;;;;;;113.43;56.93;;;19.60;99.90;;;;;;5104851;27;20221;-65
2023/08/23 04:29:53;;;;;;;110.90;52.97;;;19.70;99.90;;;;;;5102030;28;20225;-66
2023/08/23 04:32:40;;;;;;;106.30;51.13;;;19.70;99.90;;;;;;5106113;28;20750;-66
2023/08/23 04:35:27;;;;;;;99.13;51.80;;;19.80;99.90;;;;;;5104365;28;20533;-66
2023/08/23 04:38:15;;;;;;;102.43;51.57;;;19.80;99.90;;;;;;5106071;27;20199;-67
2023/08/23 04:41:02;;;;;;;102.90;50.53;;;19.70;99.90;;;;;;5104605;28;20199;-66
2023/08/23 04:43:49;;;;;;;103.40;51.57;;;19.80;99.90;;;;;;5106303;28;20223;-66
2023/08/23 04:46:38;;;;;;;92.07;49.23;;;19.80;99.90;;;;;;5105516;28;20686;-66
2023/08/23 04:49:25;;;;;;;99.43;50.70;;;19.80;99.90;;;;;;5101212;28;20199;-66
2023/08/23 04:52:12;;;;;;;96.40;49.60;;;19.90;99.90;;;;;;5103512;28;20238;-67
2023/08/23 04:54:59;;;;;;;94.67;47.67;;;19.80;99.90;;;;;;5105220;27;20679;-66
2023/08/23 04:57:47;;;;;;;91.00;47.43;;;19.90;99.90;;;;;;5106772;28;20192;-67
2023/08/23 05:00:34;;;;;;;93.77;47.77;;;19.80;99.90;;;;;;5104348;27;20395;-66
2023/08/23 05:03:22;;;;;;;90.20;46.80;;;19.90;99.90;;;;;;5104198;28;20705;-66
2023/08/23 05:06:10;;;;;;;101.33;50.27;;;19.80;99.90;;;;;;5105006;28;20208;-67
2023/08/23 05:08:57;;;;;;;97.23;48.30;;;19.80;99.90;;;;;;5105340;27;20575;-66
2023/08/23 05:11:44;;;;;;;94.73;49.20;;;19.80;99.90;;;;;;5100797;27;20202;-66
2023/08/23 05:14:31;;;;;;;95.00;50.23;;;19.80;99.90;;;;;;5104881;28;20924;-66
2023/08/23 05:17:19;;;;;;;98.27;48.23;;;19.90;99.90;;;;;;5100236;28;20233;-66
2023/08/23 05:20:09;;;;;;;90.30;47.83;;;19.90;99.90;;;;;;5102915;27;20248;-66
2023/08/23 05:22:56;;;;;;;94.50;47.90;;;20.00;99.90;;;;;;5102535;28;20722;-66
2023/08/23 05:25:44;;;;;;;90.20;46.17;;;20.00;99.90;;;;;;5106876;28;20210;-66
2023/08/23 05:28:32;;;;;;;91.87;47.37;;;20.00;99.90;;;;;;5107641;28;20249;-65
2023/08/23 05:31:19;;;;;;;89.43;46.10;;;20.00;99.90;;;;;;5105718;28;20203;-66
2023/08/23 05:34:07;;;;;;;86.90;47.17;;;20.00;99.90;;;;;;5104021;28;20203;-65
2023/08/23 05:36:55;;;;;;;82.70;44.03;;;20.00;99.90;;;;;;5100638;28;20211;-66
2023/08/23 05:39:42;;;;;;;79.60;42.83;;;20.20;99.90;;;;;;5104012;28;20689;-65
2023/08/23 05:42:30;;;;;;;80.30;42.37;;;20.40;99.90;;;;;;5098979;27;20196;-65
2023/08/23 05:45:17;;;;;;;79.07;41.97;;;20.40;99.90;;;;;;5101376;28;20209;-65
2023/08/23 05:48:05;;;;;;;83.83;43.30;;;20.40;99.90;;;;;;5107999;27;20585;-65
2023/08/23 05:50:53;;;;;;;83.43;42.30;;;20.50;99.90;;;;;;5108719;27;20211;-65
2023/08/23 05:53:41;;;;;;;81.80;40.27;;;20.40;99.90;;;;;;5104385;28;20200;-65
2023/08/23 05:56:28;;;;;;;87.60;41.90;;;20.30;99.90;;;;;;5108042;27;20287;-65
2023/08/23 05:59:16;;;;;;;84.47;41.97;;;20.30;99.90;;;;;;5096655;28;20289;-66
2023/08/23 06:02:03;;;;;;;79.93;40.77;;;20.30;99.90;;;;;;5104303;28;20231;-65
2023/08/23 06:04:50;;;;;;;79.83;41.03;;;20.30;99.90;;;;;;5101835;28;20215;-66
2023/08/23 06:07:37;;;;;;;79.93;39.07;;;20.40;99.90;;;;;;5098092;27;20941;-65
2023/08/23 06:10:26;;;;;;;80.63;41.47;;;20.30;99.90;;;;;;5102276;28;20282;-65
2023/08/23 06:13:13;;;;;;;80.30;41.73;;;20.20;99.90;;;;;;5099873;28;20662;-65
2023/08/23 06:16:00;;;;;;;79.47;41.03;;;20.20;99.90;;;;;;5104721;28;20206;-65
2023/08/23 06:18:47;;;;;;;89.00;41.30;;;20.20;99.90;;;;;;5102461;28;20210;-65
2023/08/23 06:21:35;;;;;;;77.27;40.30;;;20.40;99.90;;;;;;5102631;28;20654;-65
2023/08/23 06:24:22;;;;;;;75.87;41.27;;;20.40;99.90;;;;;;5102974;27;20685;-65
2023/08/23 06:27:10;;;;;;;71.20;41.10;;;20.50;99.90;;;;;;5103426;28;20219;-65
2023/08/23 06:29:58;;;;;;;71.47;39.03;;;20.40;99.90;;;;;;5104612;27;21740;-65
2023/08/23 06:32:46;;;;;;;67.10;38.53;;;20.50;99.90;;;;;;5103266;28;20595;-65
2023/08/23 06:35:34;;;;;;;74.20;39.00;;;20.60;99.90;;;;;;5103908;28;20203;-65
2023/08/23 06:38:21;;;;;;;68.20;38.93;;;20.80;99.90;;;;;;5103625;27;20187;-65
2023/08/23 06:41:08;;;;;;;69.87;39.97;;;21.00;99.90;;;;;;5103267;28;20638;-64
2023/08/23 06:44:00;;;;;;;65.57;37.87;;;20.80;99.90;;;;;;5099456;28;20207;-65
2023/08/23 06:46:48;;;;;;;76.40;39.80;;;20.80;99.90;;;;;;5104364;28;20207;-65
2023/08/23 06:49:35;;;;;;;75.63;40.00;;;20.90;99.90;;;;;;5105675;27;20209;-65
2023/08/23 06:52:22;;;;;;;70.60;38.53;;;20.90;99.90;;;;;;5107633;27;20225;-65
2023/08/23 06:55:10;;;;;;;70.33;38.73;;;21.00;99.90;;;;;;5099785;27;20192;-66
2023/08/23 06:57:57;;;;;;;65.63;35.70;;;21.10;99.90;;;;;;5104505;28;20203;-65
2023/08/23 07:00:46;;;;;;;67.13;37.43;;;21.00;99.90;;;;;;5104498;28;20276;-64
2023/08/23 07:03:33;;;;;;;69.67;39.80;;;20.60;99.90;;;;;;5103796;28;20242;-67
2023/08/23 07:06:20;;;;;;;70.07;37.63;;;20.90;99.90;;;;;;5098867;28;20634;-64
2023/08/23 07:09:07;;;;;;;75.83;40.83;;;20.90;99.90;;;;;;5104074;28;20675;-64
2023/08/23 07:11:54;;;;;;;71.90;39.47;;;20.90;99.90;;;;;;5101223;28;20207;-64
2023/08/23 07:14:42;;;;;;;74.00;40.70;;;20.90;99.90;;;;;;5110971;28;20206;-64
2023/08/23 07:17:30;;;;;;;74.00;40.60;;;20.70;99.90;;;;;;5109390;27;20191;-66
2023/08/23 07:20:17;;;;;;;83.40;43.80;;;20.90;99.90;;;;;;5106237;27;20662;-64
2023/08/23 07:23:05;;;;;;;76.90;42.73;;;20.70;99.90;;;;;;5113462;28;20210;-65
2023/08/23 07:25:52;;;;;;;83.63;42.90;;;20.80;99.90;;;;;;5111890;27;20206;-64
2023/08/23 07:28:39;;;;;;;87.07;43.77;;;20.70;99.90;;;;;;5112742;28;20221;-64
2023/08/23 07:31:26;;;;;;;82.43;44.03;;;20.80;99.90;;;;;;5109708;27;20272;-64
2023/08/23 07:34:16;;;;;;;79.03;43.30;;;20.70;99.90;;;;;;5108314;27;20788;-66
2023/08/23 07:37:03;;;;;;;71.03;41.97;;;20.60;99.90;;;;;;5110868;28;20203;-64
2023/08/23 07:39:50;;;;;;;84.53;45.53;;;20.60;99.90;;;;;;5099556;28;22078;-65
2023/08/23 07:42:38;;;;;;;91.43;45.83;;;20.50;99.90;;;;;;5107679;28;20223;-65
2023/08/23 07:45:25;;;;;;;86.10;46.93;;;20.40;99.90;;;;;;5108896;27;20203;-65
2023/08/23 07:48:12;;;;;;;90.87;44.50;;;20.30;99.90;;;;;;5110308;27;20217;-64
2023/08/23 07:51:01;;;;;;;80.33;42.90;;;20.10;99.90;;;;;;5111718;27;20210;-65
2023/08/23 07:53:49;;;;;;;79.70;42.67;;;20.20;99.90;;;;;;5102710;28;20198;-65
2023/08/23 07:56:36;;;;;;;80.00;42.30;;;20.30;99.90;;;;;;5104028;28;20218;-66
2023/08/23 07:59:23;;;;;;;75.67;39.60;;;20.40;99.90;;;;;;5105950;27;20281;-65
2023/08/23 08:02:11;;;;;;;55.03;33.93;;;20.70;99.90;;;;;;5101440;27;20242;-65
2023/08/23 08:04:58;;;;;;;55.47;32.33;;;20.90;99.90;;;;;;5104235;27;20203;-65
2023/08/23 08:07:47;;;;;;;51.03;31.80;;;21.30;99.90;;;;;;5107321;27;20254;-65
2023/08/23 08:10:34;;;;;;;51.57;31.87;;;21.70;99.90;;;;;;5103553;27;20957;-65
2023/08/23 08:13:21;;;;;;;58.40;33.30;;;21.70;99.90;;;;;;5110011;27;20199;-66
2023/08/23 08:16:09;;;;;;;52.60;30.13;;;21.80;99.90;;;;;;5106108;27;20255;-66
2023/08/23 08:18:57;;;;;;;49.80;31.27;;;21.80;99.90;;;;;;5109812;28;20236;-64
2023/08/23 08:21:44;;;;;;;48.97;31.50;;;21.40;99.90;;;;;;5110996;27;20214;-65
2023/08/23 08:24:32;;;;;;;48.13;30.87;;;21.50;99.90;;;;;;5102531;27;20191;-65
2023/08/23 08:27:20;;;;;;;47.67;30.30;;;21.60;99.90;;;;;;5104814;27;20214;-64
2023/08/23 08:30:08;;;;;;;53.43;31.93;;;21.80;99.90;;;;;;5104047;28;20202;-64
2023/08/23 08:32:55;;;;;;;47.90;29.57;;;21.90;99.90;;;;;;5101705;28;20555;-67
2023/08/23 08:35:43;;;;;;;50.37;30.97;;;22.00;99.90;;;;;;5100697;28;20187;-66
2023/08/23 08:38:30;;;;;;;45.87;28.87;;;22.20;99.90;;;;;;5107686;28;20199;-69
2023/08/23 08:41:18;;;;;;;55.30;34.27;;;22.30;99.90;;;;;;5103523;28;20335;-68
2023/08/23 08:44:11;;;;;;;49.43;31.83;;;22.40;99.90;;;;;;5102584;28;20207;-67
2023/08/23 08:46:58;;;;;;;55.43;32.97;;;22.50;99.90;;;;;;5100644;28;20278;-66
2023/08/23 08:49:45;;;;;;;60.90;33.63;;;22.60;99.90;;;;;;5101438;28;20206;-65
2023/08/23 08:52:32;;;;;;;57.77;33.13;;;22.80;99.90;;;;;;5107037;27;20769;-65
2023/08/23 08:55:19;;;;;;;50.17;32.50;;;22.90;99.90;;;;;;5098549;28;20204;-66
2023/08/23 08:58:08;;;;;;;52.57;33.27;;;23.10;99.90;;;;;;5101862;27;20215;-65
2023/08/23 09:00:55;;;;;;;49.13;31.33;;;23.20;99.90;;;;;;5099549;27;20200;-66
2023/08/23 09:03:42;;;;;;;51.73;29.83;;;23.50;99.90;;;;;;5103031;28;20498;-65
2023/08/23 09:06:30;;;;;;;42.90;28.63;;;23.70;99.90;;;;;;5102589;28;20742;-66
2023/08/23 09:09:17;;;;;;;42.10;28.17;;;23.80;99.90;;;;;;5099368;28;20712;-65
2023/08/23 09:12:05;;;;;;;40.33;25.85;;;23.80;99.90;;;;;;5103400;28;20560;-65
2023/08/23 09:14:53;;;;;;;34.70;23.85;;;24.00;99.90;;;;;;5102319;28;20932;-64
2023/08/23 09:17:40;;;;;;;34.78;23.50;;;24.20;99.90;;;;;;5102824;28;20200;-65
2023/08/23 09:20:28;;;;;;;34.78;23.55;;;24.40;99.90;;;;;;5106283;28;20214;-65
2023/08/23 09:23:15;;;;;;;29.73;22.90;;;24.50;99.90;;;;;;5103107;28;20207;-64
2023/08/23 09:26:02;;;;;;;34.20;24.02;;;24.80;99.90;;;;;;5103015;28;20794;-64
2023/08/23 09:28:49;;;;;;;31.63;23.02;;;25.20;99.90;;;;;;5099670;28;20359;-65
2023/08/23 09:31:38;;;;;;;33.92;23.27;;;25.20;99.90;;;;;;5100886;28;20198;-64
2023/08/23 09:34:25;;;;;;;36.88;24.23;;;25.80;99.90;;;;;;5111886;27;20222;-65
2023/08/23 09:37:12;;;;;;;34.58;23.35;;;26.40;99.90;;;;;;5104481;28;20195;-65
2023/08/23 09:39:59;;;;;;;29.13;21.95;;;26.70;99.90;;;;;;5102972;28;20207;-65
2023/08/23 09:42:47;;;;;;;29.20;21.38;;;27.40;99.90;;;;;;5101422;28;20210;-64
2023/08/23 09:45:34;;;;;;;28.27;21.27;;;27.70;99.90;;;;;;5099520;28;20207;-64
2023/08/23 09:48:23;;;;;;;28.23;20.05;;;27.90;99.90;;;;;;5102834;28;20227;-66
2023/08/23 09:51:10;;;;;;;25.60;19.17;;;28.20;99.90;;;;;;5097228;28;20237;-64
2023/08/23 09:53:57;;;;;;;26.20;19.40;;;28.20;99.90;;;;;;5099176;28;20238;-64
2023/08/23 09:56:45;;;;;;;26.95;19.75;;;28.10;99.90;;;;;;5098795;28;20199;-65
2023/08/23 09:59:32;;;;;;;25.75;19.35;;;28.10;99.90;;;;;;5103316;28;20735;-64
2023/08/23 10:02:19;;;;;;;27.92;20.52;;;28.00;99.90;;;;;;5100562;28;21214;-64
2023/08/23 10:05:11;;;;;;;25.83;19.40;;;25.90;99.90;;;;;;5103255;28;20251;-63
2023/08/23 10:07:58;;;;;;;29.20;20.98;;;25.00;99.90;;;;;;5102763;28;20705;-64
2023/08/23 10:10:49;;;;;;;26.30;19.33;;;25.30;99.90;;;;;;5102932;28;20674;-64
2023/08/23 10:13:37;;;;;;;25.38;18.35;;;25.90;99.90;;;;;;5092547;28;20238;-64
2023/08/23 10:16:24;;;;;;;23.95;18.95;;;26.40;99.90;;;;;;5099707;28;20204;-65
2023/08/23 10:19:11;;;;;;;26.52;19.63;;;26.10;99.90;;;;;;5100728;28;20199;-63
2023/08/23 10:22:00;;;;;;;23.48;16.95;;;26.00;99.90;;;;;;5100711;28;20191;-62
2023/08/23 10:24:47;;;;;;;24.20;17.35;;;26.40;99.90;;;;;;5095985;28;20211;-63
2023/08/23 10:27:35;;;;;;;24.20;15.85;;;26.30;99.90;;;;;;5099328;28;20348;-62
2023/08/23 10:30:25;;;;;;;24.80;16.35;;;25.80;99.90;;;;;;5098032;28;20206;-62
2023/08/23 10:33:13;;;;;;;26.55;16.48;;;25.30;99.90;;;;;;5100946;28;20548;-64
2023/08/23 10:36:01;;;;;;;21.33;15.65;;;24.90;99.90;;;;;;5102594;28;20207;-62
2023/08/23 10:38:49;;;;;;;21.10;15.93;;;25.60;99.90;;;;;;5101343;28;20214;-62
2023/08/23 10:41:36;;;;;;;26.33;16.75;;;26.00;99.90;;;;;;5099720;28;20223;-63
2023/08/23 10:44:24;;;;;;;23.77;16.98;;;26.00;99.90;;;;;;5099509;28;20202;-62
2023/08/23 10:47:11;;;;;;;23.75;16.92;;;25.80;99.90;;;;;;5097981;28;20682;-63
2023/08/23 10:49:58;;;;;;;25.52;16.50;;;26.70;99.90;;;;;;5098313;28;20312;-64
2023/08/23 10:52:47;;;;;;;33.25;18.45;;;26.70;99.90;;;;;;5101346;28;20633;-63
2023/08/23 10:55:36;;;;;;;24.45;16.83;;;26.80;99.90;;;;;;5103012;28;20600;-63
2023/08/23 10:58:23;;;;;;;20.52;14.48;;;27.50;99.90;;;;;;5104453;28;20206;-63
2023/08/23 11:01:10;;;;;;;27.23;15.70;;;27.80;99.90;;;;;;5101670;28;20206;-63
2023/08/23 11:03:57;;;;;;;25.25;16.23;;;28.20;99.90;;;;;;5099108;28;20226;-64
2023/08/23 11:06:45;;;;;;;27.25;17.17;;;28.40;99.90;;;;;;5099551;28;20202;-65
2023/08/23 11:09:32;;;;;;;24.52;16.60;;;28.40;99.90;;;;;;5099412;28;20211;-62
2023/08/23 11:12:21;;;;;;;27.92;16.05;;;28.80;99.90;;;;;;5098502;28;20261;-65
2023/08/23 11:15:09;;;;;;;30.30;16.95;;;29.40;99.90;;;;;;5102369;28;21088;-63
2023/08/23 11:17:56;;;;;;;29.95;15.90;;;29.30;99.90;;;;;;5100277;28;20218;-63
2023/08/23 11:20:43;;;;;;;28.75;15.60;;;29.70;99.90;;;;;;5095534;28;20206;-63
2023/08/23 11:23:30;;;;;;;27.85;16.38;;;29.10;99.90;;;;;;5100165;28;20578;-63
2023/08/23 11:26:18;;;;;;;30.70;16.42;;;28.60;99.90;;;;;;5100503;28;20205;-62
2023/08/23 11:29:07;;;;;;;22.80;16.67;;;28.20;99.90;;;;;;5098572;28;20223;-63
2023/08/23 11:31:54;;;;;;;21.25;14.25;;;28.40;99.90;;;;;;5099797;28;20199;-63
2023/08/23 11:34:41;;;;;;;21.75;13.27;;;28.10;99.90;;;;;;5097401;28;20249;-62
2023/08/23 11:37:29;;;;;;;17.20;12.63;;;28.10;99.90;;;;;;5100469;28;20191;-64
2023/08/23 11:40:16;;;;;;;21.75;11.80;;;28.20;99.90;;;;;;5098517;28;20602;-62
2023/08/23 11:43:07;;;;;;;22.75;12.57;;;29.00;99.90;;;;;;5099907;28;20208;-64
2023/08/23 11:45:56;;;;;;;22.67;12.98;;;29.10;99.90;;;;;;5099274;28;20227;-62
2023/08/23 11:48:43;;;;;;;21.98;12.90;;;28.30;99.90;;;;;;5098496;28;20258;-64
2023/08/23 11:51:39;;;;;;;22.10;12.68;;;28.20;99.90;;;;;;5098432;28;20617;-63
2023/08/23 11:54:26;;;;;;;20.60;12.40;;;27.80;99.90;;;;;;5102477;28;20328;-62
2023/08/23 11:57:15;;;;;;;20.50;11.10;;;27.80;99.90;;;;;;5101330;28;20206;-62
2023/08/23 12:00:03;;;;;;;17.38;10.98;;;27.90;99.90;;;;;;5103815;28;20693;-63
2023/08/23 12:02:51;;;;;;;18.65;10.27;;;28.30;99.90;;;;;;5105631;28;20763;-63
2023/08/23 12:05:38;;;;;;;16.52;10.93;;;28.50;99.90;;;;;;5105382;28;20203;-63
2023/08/23 12:08:26;;;;;;;19.13;10.73;;;28.50;99.90;;;;;;5100015;28;20219;-65
2023/08/23 12:11:13;;;;;;;18.83;10.95;;;28.50;99.90;;;;;;5104441;28;20199;-62
2023/08/23 12:14:04;;;;;;;20.23;11.32;;;27.70;99.90;;;;;;5105214;28;20706;-63
2023/08/23 12:16:52;;;;;;;15.05;10.30;;;27.40;99.90;;;;;;5102384;28;20191;-63
2023/08/23 12:19:40;;;;;;;21.75;10.02;;;26.90;99.90;;;;;;5103407;28;20828;-63
2023/08/23 12:22:27;;;;;;;13.57;9.43;;;26.70;99.90;;;;;;5097007;28;20686;-63
2023/08/23 12:25:15;;;;;;;19.60;9.60;;;27.40;99.90;;;;;;5103258;28;20199;-62
2023/08/23 12:28:02;;;;;;;23.58;9.65;;;27.10;99.90;;;;;;5104387;28;20207;-62
2023/08/23 12:30:49;;;;;;;16.40;9.02;;;26.50;99.90;;;;;;5101294;28;20211;-63
2023/08/23 12:33:36;;;;;;;12.63;9.25;;;26.40;99.90;;;;;;5102966;28;20202;-62
2023/08/23 12:36:25;;;;;;;16.55;9.32;;;26.50;99.90;;;;;;5104334;28;20236;-62
2023/08/23 12:39:13;;;;;;;15.65;9.55;;;26.40;99.90;;;;;;5102522;28;20224;-63
2023/08/23 12:42:00;;;;;;;14.27;8.70;;;26.40;99.90;;;;;;5104821;28;20290;-63
2023/08/23 12:44:47;;;;;;;15.68;8.40;;;26.70;99.90;;;;;;5100951;27;20219;-64
2023/08/23 12:47:34;;;;;;;12.18;8.27;;;26.80;99.90;;;;;;5101260;28;20203;-63
2023/08/23 12:50:21;;;;;;;15.85;7.97;;;27.10;99.90;;;;;;5105646;28;20230;-63
2023/08/23 12:53:10;;;;;;;15.10;7.28;;;27.50;99.90;;;;;;5103140;28;20227;-63
2023/08/23 12:55:57;;;;;;;10.13;6.90;;;28.00;99.90;;;;;;5102366;28;20202;-64
2023/08/23 12:58:44;;;;;;;13.52;6.60;;;28.50;99.90;;;;;;5103314;28;20194;-64
2023/08/23 13:01:32;;;;;;;16.00;6.65;;;29.00;99.90;;;;;;5103338;28;20203;-64
2023/08/23 13:04:19;;;;;;;12.13;6.72;;;28.90;98.90;;;;;;5100206;28;20326;-63
2023/08/23 13:07:06;;;;;;;11.48;6.13;;;28.40;99.90;;;;;;5099838;28;20222;-63
2023/08/23 13:09:55;;;;;;;10.60;6.13;;;28.30;99.90;;;;;;5100936;28;20728;-63
2023/08/23 13:12:42;;;;;;;11.52;6.20;;;28.20;99.90;;;;;;5099514;28;20768;-63
2023/08/23 13:15:29;;;;;;;10.25;6.03;;;27.50;99.90;;;;;;5099179;28;20203;-62
2023/08/23 13:18:17;;;;;;;12.82;5.95;;;27.50;99.90;;;;;;5098115;28;20191;-63
2023/08/23 13:21:06;;;;;;;8.93;5.90;;;27.50;99.90;;;;;;5105217;28;20215;-63
2023/08/23 13:23:53;;;;;;;8.25;5.93;;;27.90;99.90;;;;;;5103249;28;20199;-63
2023/08/23 13:26:42;;;;;;;9.90;6.55;;;27.60;99.90;;;;;;5100956;27;20200;-63
2023/08/23 13:29:29;;;;;;;7.35;5.45;;;27.30;99.90;;;;;;5097807;28;20211;-62
2023/08/23 13:32:17;;;;;;;11.52;5.88;;;27.80;99.90;;;;;;5099077;28;20195;-64
2023/08/23 13:35:04;;;;;;;13.75;6.00;;;28.20;99.90;;;;;;5100539;28;20206;-62
2023/08/23 13:37:51;;;;;;;10.70;5.57;;;28.30;99.90;;;;;;5099815;28;20231;-62
2023/08/23 13:40:39;;;;;;;10.95;5.03;;;29.00;99.90;;;;;;5100259;28;21034;-62
2023/08/23 13:43:28;;;;;;;9.52;5.82;;;29.30;97.40;;;;;;5102449;28;20201;-62
2023/08/23 13:46:15;;;;;;;9.30;5.53;;;29.30;92.00;;;;;;5097287;28;20199;-62
2023/08/23 13:49:02;;;;;;;10.70;6.07;;;28.40;92.80;;;;;;5103525;28;20653;-62
2023/08/23 13:51:49;;;;;;;10.38;5.78;;;28.20;96.60;;;;;;5098950;28;20237;-64
2023/08/23 13:54:37;;;;;;;8.55;5.00;;;28.10;96.70;;;;;;5099705;28;20218;-62
2023/08/23 13:57:25;;;;;;;7.35;5.47;;;28.60;97.20;;;;;;5102659;28;20202;-63
2023/08/23 14:00:14;;;;;;;11.55;4.85;;;28.30;94.50;;;;;;5098051;27;20783;-62
2023/08/23 14:03:02;;;;;;;9.07;5.28;;;28.40;99.90;;;;;;5104424;28;20269;-62
2023/08/23 14:05:57;;;;;;;6.85;4.80;;;28.70;98.50;;;;;;5104815;28;20207;-62
2023/08/23 14:08:44;;;;;;;10.50;5.07;;;28.90;94.90;;;;;;5101384;28;20619;-62
2023/08/23 14:11:32;;;;;;;7.65;4.72;;;29.40;93.10;;;;;;5100057;28;20191;-62